createdAt,value
2018-04-12T00:02:23.048Z,98414.86
2018-04-12T00:08:27.449Z,98418.33
2018-04-12T00:14:31.959Z,98411.88
2018-04-12T00:20:37.276Z,98409.49
2018-04-12T00:26:41.797Z,98402.66
2018-04-12T00:32:46.996Z,98388.52
2018-04-12T00:38:51.457Z,98384.72
2018-04-12T00:44:55.839Z,98380.45
2018-04-12T00:51:00.264Z,98376.78
2018-04-12T00:57:04.753Z,98370.58
2018-04-12T01:03:09.193Z,98366.66
2018-04-12T01:09:14.402Z,98373.34
2018-04-12T01:15:18.763Z,98369.75
2018-04-12T01:21:24.791Z,98355.66
2018-04-12T01:27:29.227Z,98355.84
2018-04-12T01:33:33.701Z,98348.74
2018-04-12T01:39:38.070Z,98340.98
2018-04-12T01:45:43.002Z,98335.89
2018-04-12T01:51:47.864Z,98338.16
2018-04-12T01:57:53.132Z,98338.37
2018-04-12T02:03:57.612Z,98336.14
2018-04-12T02:10:02.073Z,98337.59
2018-04-12T02:16:06.450Z,98325.62
2018-04-12T02:22:11.754Z,98325.05
2018-04-12T02:28:16.112Z,98318.03
2018-04-12T02:34:21.247Z,98318.73
2018-04-12T02:40:25.638Z,98309.30
2018-04-12T02:46:30.038Z,98302.34
2018-04-12T02:52:34.446Z,98295.85
2018-04-12T02:58:38.882Z,98287.89
2018-04-12T03:04:43.571Z,98280.34
2018-04-12T03:10:48.702Z,98278.33
2018-04-12T03:16:53.186Z,98265.86
2018-04-12T03:22:57.548Z,98266.66
2018-04-12T03:29:01.938Z,98262.38
2018-04-12T03:35:06.310Z,98251.76
2018-04-12T03:41:11.227Z,98256.09
2018-04-12T03:47:16.488Z,98244.11
2018-04-12T03:53:21.070Z,98242.08
2018-04-12T03:59:25.843Z,98233.98
2018-04-12T04:05:30.503Z,98236.50
2018-04-12T04:11:35.243Z,98236.86
2018-04-12T04:17:57.526Z,98229.03
2018-04-12T04:24:02.069Z,98226.20
2018-04-12T04:30:07.355Z,98228.53
2018-04-12T04:36:12.873Z,98227.11
2018-04-12T04:42:17.224Z,98228.92
2018-04-12T04:48:21.667Z,98228.43
2018-04-12T04:54:26.042Z,98227.32
2018-04-12T05:00:30.390Z,98223.94
2018-04-12T05:06:34.759Z,98217.34
2018-04-12T05:12:39.423Z,98208.52
2018-04-12T05:18:44.669Z,98209.42
2018-04-12T05:24:49.032Z,98197.32
2018-04-12T05:30:53.442Z,98200.09
2018-04-12T05:36:58.612Z,98204.66
2018-04-12T05:43:03.080Z,98196.19
2018-04-12T05:49:07.452Z,98186.76
2018-04-12T05:55:13.129Z,98192.09
2018-04-12T06:01:17.483Z,98192.63
2018-04-12T06:07:22.672Z,98184.09
2018-04-12T06:13:28.532Z,98177.00
2018-04-12T06:19:32.951Z,98180.85
2018-04-12T06:25:38.081Z,98184.73
2018-04-12T06:31:42.768Z,98183.59
2018-04-12T06:37:47.171Z,98180.77
2018-04-12T06:43:51.726Z,98178.64
2018-04-12T06:49:57.303Z,98170.34
2018-04-12T06:56:02.004Z,98164.67
2018-04-12T07:02:06.371Z,98159.73
2018-04-12T07:08:10.905Z,98152.84
2018-04-12T07:14:15.448Z,98162.88
2018-04-12T07:20:19.828Z,98161.45
2018-04-12T07:26:24.435Z,98182.45
2018-04-12T07:32:29.054Z,98179.48
2018-04-12T07:38:33.420Z,98164.81
2018-04-12T07:44:37.788Z,98165.60
2018-04-12T07:50:43.051Z,98162.41
2018-04-12T07:56:47.447Z,98158.30
2018-04-12T08:02:51.806Z,98158.70
2018-04-12T08:08:56.226Z,98152.70
2018-04-12T08:15:00.584Z,98141.84
2018-04-12T08:21:05.720Z,98131.91
2018-04-12T08:27:10.439Z,98118.56
2018-04-12T08:33:14.821Z,98120.50
2018-04-12T08:39:19.201Z,98121.48
2018-04-12T08:45:24.411Z,98112.89
2018-04-12T08:51:28.829Z,98105.19
2018-04-12T08:57:33.182Z,98105.58
2018-04-12T09:03:37.555Z,98098.76
2018-04-12T09:09:42.120Z,98090.52
2018-04-12T09:15:46.557Z,98079.73
2018-04-12T09:21:51.794Z,98069.67
2018-04-12T09:27:56.394Z,98057.05
2018-04-12T09:34:00.792Z,98062.56
2018-04-12T09:40:05.179Z,98061.62
2018-04-12T09:46:09.623Z,98063.89
2018-04-12T09:52:14.178Z,98071.70
2018-04-12T09:58:18.714Z,98084.02
2018-04-12T10:04:27.029Z,98104.45
2018-04-12T10:10:31.406Z,98101.94
2018-04-12T10:16:35.912Z,98113.31
2018-04-12T10:22:40.410Z,98105.45
2018-04-12T10:28:44.849Z,98091.73
2018-04-12T10:34:49.351Z,98076.44
2018-04-12T10:40:53.723Z,98082.86
2018-04-12T10:46:58.152Z,98071.81
2018-04-12T10:53:02.633Z,98065.63
2018-04-12T10:59:07.765Z,98059.78
2018-04-12T11:05:13.020Z,98055.19
2018-04-12T11:11:17.445Z,98039.12
2018-04-12T11:17:21.809Z,98034.30
2018-04-12T11:23:26.192Z,98030.12
2018-04-12T11:29:30.623Z,98026.09
2018-04-12T11:35:35.010Z,98003.14
2018-04-12T11:41:39.365Z,97991.98
2018-04-12T11:47:43.761Z,97989.17
2018-04-12T11:53:48.157Z,97992.22
2018-04-12T11:59:53.360Z,97976.38
2018-04-12T12:05:57.908Z,97968.72
2018-04-12T12:12:02.382Z,97981.22
2018-04-12T12:18:06.770Z,97999.17
2018-04-12T12:24:11.698Z,97993.00
2018-04-12T12:30:16.336Z,97982.13
2018-04-12T12:36:20.712Z,97986.44
2018-04-12T12:42:30.880Z,97970.27
2018-04-12T12:48:36.036Z,97966.58
2018-04-12T12:54:40.513Z,97968.29
2018-04-12T13:00:45.232Z,97954.98
2018-04-12T13:06:55.837Z,97943.56
2018-04-12T13:13:00.202Z,97952.31
2018-04-12T13:19:10.345Z,97936.36
2018-04-12T13:25:21.371Z,97945.89
2018-04-12T13:31:25.736Z,97955.44
2018-04-12T13:37:30.103Z,97957.41
2018-04-12T13:43:34.479Z,97980.89
2018-04-12T13:49:38.855Z,97985.28
2018-04-12T13:55:43.216Z,97980.67
2018-04-12T14:01:47.610Z,97972.98
2018-04-12T14:07:53.484Z,97983.64
2018-04-12T14:13:57.860Z,97987.96
2018-04-12T14:20:13.735Z,97979.86
2018-04-12T14:26:23.983Z,97996.55
2018-04-12T14:32:34.394Z,97992.65
2018-04-12T14:38:39.549Z,97988.59
2018-04-12T14:44:43.944Z,97988.03
2018-04-12T14:50:55.020Z,97986.86
2018-04-12T14:57:05.328Z,97978.46
2018-04-12T15:03:15.219Z,97969.03
2018-04-12T15:09:25.564Z,97967.45
2018-04-12T15:15:41.709Z,97975.83
2018-04-12T15:21:57.720Z,97981.57
2018-04-12T15:28:13.710Z,97985.40
2018-04-12T15:34:23.902Z,97990.20
2018-04-12T15:40:28.280Z,98004.86
2018-04-12T15:46:32.756Z,98007.44
2018-04-12T15:52:49.023Z,98009.45
2018-04-12T15:58:53.598Z,97998.38
2018-04-12T16:04:57.972Z,97998.63
2018-04-12T16:11:08.319Z,97994.19
2018-04-12T16:17:18.503Z,97994.45
2018-04-12T16:23:22.967Z,98002.67
2018-04-12T16:29:40.011Z,98002.22
2018-04-12T16:35:45.154Z,98000.46
2018-04-12T16:41:55.408Z,97997.16
2018-04-12T16:48:05.750Z,97998.83
2018-04-12T16:54:15.925Z,97992.20
2018-04-12T17:00:20.319Z,97988.25
2018-04-12T17:06:31.500Z,97982.98
2018-04-12T17:12:41.791Z,97988.05
2018-04-12T17:18:46.159Z,97991.16
2018-04-12T17:24:57.078Z,98001.52
2018-04-12T17:31:07.853Z,98002.05
2018-04-12T17:37:23.800Z,98003.73
2018-04-12T17:43:34.066Z,98002.31
2018-04-12T17:49:39.377Z,98000.42
2018-04-12T17:55:55.399Z,98001.73
2018-04-12T18:01:59.760Z,97994.70
2018-04-12T18:08:10.193Z,97999.80
2018-04-12T18:14:26.016Z,98005.25
2018-04-12T18:20:30.373Z,98018.84
2018-04-12T18:26:34.743Z,98022.73
2018-04-12T18:32:45.073Z,98027.28
2018-04-12T18:38:49.491Z,98035.49
2018-04-12T18:45:00.573Z,98036.95
2018-04-12T18:51:10.871Z,98047.32
2018-04-12T18:57:15.258Z,98056.03
2018-04-12T19:03:19.633Z,98059.45
2018-04-12T19:09:35.503Z,98056.14
2018-04-12T19:15:40.119Z,98053.12
2018-04-12T19:21:44.832Z,98055.63
2018-04-12T19:27:49.217Z,98043.97
2018-04-12T19:33:53.573Z,98044.12
2018-04-12T19:39:57.930Z,98025.56
2018-04-12T19:46:02.312Z,98031.28
2018-04-12T19:52:06.688Z,98029.70
2018-04-12T19:58:16.912Z,98026.83
2018-04-12T20:04:21.282Z,98021.70
2018-04-12T20:10:25.645Z,98018.28
2018-04-12T20:16:35.851Z,98021.88
2018-04-12T20:22:40.604Z,98023.70
2018-04-12T20:28:56.560Z,98030.70
2018-04-12T20:35:07.616Z,98039.43
2018-04-12T20:41:17.982Z,98026.61
2018-04-12T20:47:28.391Z,98033.84
2018-04-12T20:53:44.558Z,98032.64
2018-04-12T20:59:54.889Z,98025.62
2018-04-12T21:06:00.052Z,98022.28
2018-04-12T21:12:04.419Z,98031.09
2018-04-12T21:18:20.622Z,98028.78
2018-04-12T21:24:25.853Z,98026.48
2018-04-12T21:30:36.200Z,98019.84
2018-04-12T21:36:40.895Z,98012.70
2018-04-12T21:42:45.414Z,98005.23
2018-04-12T21:48:50.212Z,98004.02
2018-04-12T21:54:54.580Z,98016.22
2018-04-12T22:00:58.937Z,98025.27
2018-04-12T22:07:09.151Z,98029.60
2018-04-12T22:13:13.631Z,98038.62
2018-04-12T22:19:23.983Z,98027.95
2018-04-12T22:25:28.415Z,98026.75
2018-04-12T22:31:51.015Z,98028.09
2018-04-12T22:38:07.562Z,98042.32
2018-04-12T22:44:12.038Z,98065.60
2018-04-12T22:50:22.388Z,98101.77
2018-04-12T22:56:26.855Z,98107.03
2018-04-12T23:02:31.223Z,98097.84
2018-04-12T23:08:41.874Z,98091.33
2018-04-12T23:14:46.347Z,98083.64
2018-04-12T23:20:56.470Z,98089.58
2018-04-12T23:27:01.011Z,98096.59
2018-04-12T23:33:12.470Z,98091.31
2018-04-12T23:39:28.434Z,98094.40
2018-04-12T23:45:38.844Z,98097.09
2018-04-12T23:51:43.373Z,98098.27
2018-04-12T23:57:47.742Z,98092.94
